sensor_id;sensor_type;location;lat;lon;timestamp;temperature;humidity
30250;DHT22;17064;47.974;13.826;2024-03-22T00:04:09;6.70;99.90
30250;DHT22;17064;47.974;13.826;2024-03-22T00:09:10;6.60;99.90
30250;DHT22;17064;47.974;13.826;2024-03-22T00:14:11;6.50;99.90
30250;DHT22;17064;47.974;13.826;2024-03-22T00:19:11;6.50;99.90
30250;DHT22;17064;47.974;13.826;2024-03-22T00:24:12;6.50;99.90
30250;DHT22;17064;47.974;13.826;2024-03-22T00:29:12;6.50;99.90
30250;DHT22;17064;47.974;13.826;2024-03-22T00:34:13;6.50;99.90
30250;DHT22;17064;47.974;13.826;2024-03-22T00:39:14;6.40;99.90
30250;DHT22;17064;47.974;13.826;2024-03-22T00:44:14;6.50;99.90
30250;DHT22;17064;47.974;13.826;2024-03-22T00:49:15;6.40;99.90
30250;DHT22;17064;47.974;13.826;2024-03-22T00:54:15;6.40;99.90
30250;DHT22;17064;47.974;13.826;2024-03-22T00:59:16;6.50;99.90
30250;DHT22;17064;47.974;13.826;2024-03-22T01:04:17;6.50;99.90
30250;DHT22;17064;47.974;13.826;2024-03-22T01:09:17;6.50;99.90
30250;DHT22;17064;47.974;13.826;2024-03-22T01:14:19;6.50;99.90
30250;DHT22;17064;47.974;13.826;2024-03-22T01:19:20;6.50;99.90
30250;DHT22;17064;47.974;13.826;2024-03-22T01:24:21;6.40;99.90
30250;DHT22;17064;47.974;13.826;2024-03-22T01:29:22;6.50;99.90
30250;DHT22;17064;47.974;13.826;2024-03-22T01:34:22;6.40;99.90
30250;DHT22;17064;47.974;13.826;2024-03-22T01:39:23;6.40;99.90
30250;DHT22;17064;47.974;13.826;2024-03-22T01:44:31;6.30;99.90
30250;DHT22;17064;47.974;13.826;2024-03-22T01:49:32;6.30;99.90
30250;DHT22;17064;47.974;13.826;2024-03-22T01:54:32;6.30;99.90
30250;DHT22;17064;47.974;13.826;2024-03-22T01:59:33;6.30;99.90
30250;DHT22;17064;47.974;13.826;2024-03-22T02:04:34;6.40;99.90
30250;DHT22;17064;47.974;13.826;2024-03-22T02:09:34;6.40;99.90
30250;DHT22;17064;47.974;13.826;2024-03-22T02:14:36;6.40;99.90
30250;DHT22;17064;47.974;13.826;2024-03-22T02:19:37;6.40;99.90
30250;DHT22;17064;47.974;13.826;2024-03-22T02:24:37;6.40;99.90
30250;DHT22;17064;47.974;13.826;2024-03-22T02:29:38;6.30;99.90
30250;DHT22;17064;47.974;13.826;2024-03-22T02:34:38;6.20;99.90
30250;DHT22;17064;47.974;13.826;2024-03-22T02:39:39;6.20;99.90
30250;DHT22;17064;47.974;13.826;2024-03-22T02:44:40;6.00;99.90
30250;DHT22;17064;47.974;13.826;2024-03-22T02:49:43;5.90;99.90
30250;DHT22;17064;47.974;13.826;2024-03-22T02:54:43;5.80;99.90
30250;DHT22;17064;47.974;13.826;2024-03-22T02:59:44;5.60;99.90
30250;DHT22;17064;47.974;13.826;2024-03-22T03:04:44;5.50;99.90
30250;DHT22;17064;47.974;13.826;2024-03-22T03:09:45;5.40;99.90
30250;DHT22;17064;47.974;13.826;2024-03-22T03:14:45;5.30;99.90
30250;DHT22;17064;47.974;13.826;2024-03-22T03:19:46;5.20;99.90
30250;DHT22;17064;47.974;13.826;2024-03-22T03:24:47;5.10;99.90
30250;DHT22;17064;47.974;13.826;2024-03-22T03:29:47;4.90;99.90
30250;DHT22;17064;47.974;13.826;2024-03-22T03:34:48;4.90;99.90
30250;DHT22;17064;47.974;13.826;2024-03-22T03:39:49;4.80;99.90
30250;DHT22;17064;47.974;13.826;2024-03-22T03:44:49;4.80;99.90
30250;DHT22;17064;47.974;13.826;2024-03-22T03:49:50;4.90;99.90
30250;DHT22;17064;47.974;13.826;2024-03-22T03:54:52;4.80;99.90
30250;DHT22;17064;47.974;13.826;2024-03-22T03:59:53;4.70;99.90
30250;DHT22;17064;47.974;13.826;2024-03-22T04:04:53;4.60;99.90
30250;DHT22;17064;47.974;13.826;2024-03-22T04:09:54;4.60;99.90
30250;DHT22;17064;47.974;13.826;2024-03-22T04:14:54;4.50;99.90
30250;DHT22;17064;47.974;13.826;2024-03-22T04:19:55;4.50;99.90
30250;DHT22;17064;47.974;13.826;2024-03-22T04:24:56;4.50;99.90
30250;DHT22;17064;47.974;13.826;2024-03-22T04:29:56;4.50;99.90
30250;DHT22;17064;47.974;13.826;2024-03-22T04:34:57;4.60;99.90
30250;DHT22;17064;47.974;13.826;2024-03-22T04:39:57;4.90;99.90
30250;DHT22;17064;47.974;13.826;2024-03-22T04:44:58;5.10;99.90
30250;DHT22;17064;47.974;13.826;2024-03-22T04:49:59;5.30;99.90
30250;DHT22;17064;47.974;13.826;2024-03-22T04:54:59;5.40;99.90
30250;DHT22;17064;47.974;13.826;2024-03-22T05:00:02;5.60;99.90
30250;DHT22;17064;47.974;13.826;2024-03-22T05:05:03;5.80;99.90
30250;DHT22;17064;47.974;13.826;2024-03-22T05:10:04;5.90;99.90
30250;DHT22;17064;47.974;13.826;2024-03-22T05:15:05;6.00;99.90
30250;DHT22;17064;47.974;13.826;2024-03-22T05:20:08;6.00;99.90
30250;DHT22;17064;47.974;13.826;2024-03-22T05:25:10;6.10;99.90
30250;DHT22;17064;47.974;13.826;2024-03-22T05:30:13;6.20;99.90
30250;DHT22;17064;47.974;13.826;2024-03-22T05:35:13;6.20;99.90
30250;DHT22;17064;47.974;13.826;2024-03-22T05:40:14;6.20;99.90
30250;DHT22;17064;47.974;13.826;2024-03-22T05:45:15;6.10;99.90
30250;DHT22;17064;47.974;13.826;2024-03-22T05:50:15;6.20;99.90
30250;DHT22;17064;47.974;13.826;2024-03-22T05:55:16;6.30;99.90
30250;DHT22;17064;47.974;13.826;2024-03-22T06:00:17;6.40;99.90
30250;DHT22;17064;47.974;13.826;2024-03-22T06:05:18;6.50;99.90
30250;DHT22;17064;47.974;13.826;2024-03-22T06:10:19;6.70;99.90
30250;DHT22;17064;47.974;13.826;2024-03-22T06:15:19;6.90;99.90
30250;DHT22;17064;47.974;13.826;2024-03-22T06:20:21;7.00;99.90
30250;DHT22;17064;47.974;13.826;2024-03-22T06:25:22;7.00;99.90
30250;DHT22;17064;47.974;13.826;2024-03-22T06:30:23;7.10;99.90
30250;DHT22;17064;47.974;13.826;2024-03-22T06:35:23;7.20;99.90
30250;DHT22;17064;47.974;13.826;2024-03-22T06:40:24;7.30;99.90
30250;DHT22;17064;47.974;13.826;2024-03-22T06:45:24;7.40;99.90
30250;DHT22;17064;47.974;13.826;2024-03-22T06:50:25;7.50;99.90
30250;DHT22;17064;47.974;13.826;2024-03-22T06:55:25;7.70;99.90
30250;DHT22;17064;47.974;13.826;2024-03-22T07:00:26;7.90;99.90
30250;DHT22;17064;47.974;13.826;2024-03-22T07:05:26;8.10;99.90
30250;DHT22;17064;47.974;13.826;2024-03-22T07:10:27;8.30;99.90
30250;DHT22;17064;47.974;13.826;2024-03-22T07:15:28;8.50;99.90
30250;DHT22;17064;47.974;13.826;2024-03-22T07:20:30;8.70;99.90
30250;DHT22;17064;47.974;13.826;2024-03-22T07:25:31;8.90;99.90
30250;DHT22;17064;47.974;13.826;2024-03-22T07:30:31;9.10;99.90
30250;DHT22;17064;47.974;13.826;2024-03-22T07:35:34;9.20;99.90
30250;DHT22;17064;47.974;13.826;2024-03-22T07:40:34;9.30;99.90
30250;DHT22;17064;47.974;13.826;2024-03-22T07:45:35;9.50;99.90
30250;DHT22;17064;47.974;13.826;2024-03-22T07:50:35;9.70;99.90
30250;DHT22;17064;47.974;13.826;2024-03-22T07:55:36;10.00;99.90
30250;DHT22;17064;47.974;13.826;2024-03-22T08:00:37;10.20;99.90
30250;DHT22;17064;47.974;13.826;2024-03-22T08:05:37;10.40;99.90
30250;DHT22;17064;47.974;13.826;2024-03-22T08:10:38;10.70;99.90
30250;DHT22;17064;47.974;13.826;2024-03-22T08:15:38;10.90;99.90
30250;DHT22;17064;47.974;13.826;2024-03-22T08:20:39;11.00;99.90
30250;DHT22;17064;47.974;13.826;2024-03-22T08:25:39;11.30;99.90
30250;DHT22;17064;47.974;13.826;2024-03-22T08:30:40;11.50;99.90
30250;DHT22;17064;47.974;13.826;2024-03-22T08:35:41;11.70;99.90
30250;DHT22;17064;47.974;13.826;2024-03-22T08:40:41;12.00;99.90
30250;DHT22;17064;47.974;13.826;2024-03-22T08:45:42;12.20;99.90
30250;DHT22;17064;47.974;13.826;2024-03-22T08:50:42;12.50;99.90
30250;DHT22;17064;47.974;13.826;2024-03-22T08:55:46;12.70;99.90
30250;DHT22;17064;47.974;13.826;2024-03-22T09:00:53;13.10;99.90
30250;DHT22;17064;47.974;13.826;2024-03-22T09:05:54;13.40;99.90
30250;DHT22;17064;47.974;13.826;2024-03-22T09:10:55;13.90;99.90
30250;DHT22;17064;47.974;13.826;2024-03-22T09:15:58;14.20;99.90
30250;DHT22;17064;47.974;13.826;2024-03-22T09:20:59;14.70;99.90
30250;DHT22;17064;47.974;13.826;2024-03-22T09:26:00;15.00;99.90
30250;DHT22;17064;47.974;13.826;2024-03-22T09:31:04;15.00;99.90
30250;DHT22;17064;47.974;13.826;2024-03-22T09:36:06;15.20;99.90
30250;DHT22;17064;47.974;13.826;2024-03-22T09:41:08;15.40;99.90
30250;DHT22;17064;47.974;13.826;2024-03-22T09:46:08;15.60;99.90
30250;DHT22;17064;47.974;13.826;2024-03-22T09:51:09;15.90;99.90
30250;DHT22;17064;47.974;13.826;2024-03-22T09:56:10;16.20;99.90
30250;DHT22;17064;47.974;13.826;2024-03-22T10:01:14;16.60;97.20
30250;DHT22;17064;47.974;13.826;2024-03-22T10:06:15;16.60;96.80
30250;DHT22;17064;47.974;13.826;2024-03-22T10:11:16;16.70;95.00
30250;DHT22;17064;47.974;13.826;2024-03-22T10:16:17;16.90;94.60
30250;DHT22;17064;47.974;13.826;2024-03-22T10:21:19;17.10;94.40
30250;DHT22;17064;47.974;13.826;2024-03-22T10:26:19;17.30;93.10
30250;DHT22;17064;47.974;13.826;2024-03-22T10:31:20;17.50;92.60
30250;DHT22;17064;47.974;13.826;2024-03-22T10:36:21;17.60;92.00
30250;DHT22;17064;47.974;13.826;2024-03-22T10:41:23;17.80;91.70
30250;DHT22;17064;47.974;13.826;2024-03-22T10:46:27;17.90;90.60
30250;DHT22;17064;47.974;13.826;2024-03-22T10:51:29;18.10;87.40
30250;DHT22;17064;47.974;13.826;2024-03-22T10:56:30;18.40;90.60
30250;DHT22;17064;47.974;13.826;2024-03-22T11:01:31;18.80;90.50
30250;DHT22;17064;47.974;13.826;2024-03-22T11:06:37;18.70;84.90
30250;DHT22;17064;47.974;13.826;2024-03-22T11:11:37;18.60;80.20
30250;DHT22;17064;47.974;13.826;2024-03-22T11:16:38;18.00;84.00
30250;DHT22;17064;47.974;13.826;2024-03-22T11:21:38;17.60;85.40
30250;DHT22;17064;47.974;13.826;2024-03-22T11:26:39;17.50;85.90
30250;DHT22;17064;47.974;13.826;2024-03-22T11:31:39;17.50;84.00
30250;DHT22;17064;47.974;13.826;2024-03-22T11:36:40;17.50;82.90
30250;DHT22;17064;47.974;13.826;2024-03-22T11:41:40;17.50;84.00
30250;DHT22;17064;47.974;13.826;2024-03-22T11:46:41;17.80;88.30
30250;DHT22;17064;47.974;13.826;2024-03-22T11:51:42;18.40;87.80
30250;DHT22;17064;47.974;13.826;2024-03-22T11:56:42;18.70;81.20
30250;DHT22;17064;47.974;13.826;2024-03-22T12:01:43;18.80;81.30
30250;DHT22;17064;47.974;13.826;2024-03-22T12:06:44;18.40;80.30
30250;DHT22;17064;47.974;13.826;2024-03-22T12:11:45;18.20;77.50
30250;DHT22;17064;47.974;13.826;2024-03-22T12:16:45;18.00;80.60
30250;DHT22;17064;47.974;13.826;2024-03-22T12:21:46;17.90;77.60
30250;DHT22;17064;47.974;13.826;2024-03-22T12:26:46;18.00;81.50
30250;DHT22;17064;47.974;13.826;2024-03-22T12:31:48;18.30;80.80
30250;DHT22;17064;47.974;13.826;2024-03-22T12:36:48;18.40;78.20
30250;DHT22;17064;47.974;13.826;2024-03-22T12:41:49;18.60;79.40
30250;DHT22;17064;47.974;13.826;2024-03-22T12:46:50;18.90;81.80
30250;DHT22;17064;47.974;13.826;2024-03-22T12:51:51;19.30;80.00
30250;DHT22;17064;47.974;13.826;2024-03-22T12:56:52;19.60;74.80
30250;DHT22;17064;47.974;13.826;2024-03-22T13:01:52;19.70;73.90
30250;DHT22;17064;47.974;13.826;2024-03-22T13:06:54;19.20;73.60
30250;DHT22;17064;47.974;13.826;2024-03-22T13:11:54;19.00;75.50
30250;DHT22;17064;47.974;13.826;2024-03-22T13:16:55;18.90;74.80
30250;DHT22;17064;47.974;13.826;2024-03-22T13:21:55;18.90;74.70
30250;DHT22;17064;47.974;13.826;2024-03-22T13:26:56;18.80;78.70
30250;DHT22;17064;47.974;13.826;2024-03-22T13:31:57;18.90;73.90
30250;DHT22;17064;47.974;13.826;2024-03-22T13:36:57;18.90;75.00
30250;DHT22;17064;47.974;13.826;2024-03-22T13:41:58;19.10;75.40
30250;DHT22;17064;47.974;13.826;2024-03-22T13:46:58;19.60;75.00
30250;DHT22;17064;47.974;13.826;2024-03-22T13:51:59;19.90;74.20
30250;DHT22;17064;47.974;13.826;2024-03-22T13:57:00;20.20;70.30
30250;DHT22;17064;47.974;13.826;2024-03-22T14:02:03;20.40;71.20
30250;DHT22;17064;47.974;13.826;2024-03-22T14:07:03;20.80;66.90
30250;DHT22;17064;47.974;13.826;2024-03-22T14:12:05;20.40;69.60
30250;DHT22;17064;47.974;13.826;2024-03-22T14:17:05;19.90;70.50
30250;DHT22;17064;47.974;13.826;2024-03-22T14:22:06;19.80;70.80
30250;DHT22;17064;47.974;13.826;2024-03-22T14:27:06;20.00;72.90
30250;DHT22;17064;47.974;13.826;2024-03-22T14:32:07;21.10;70.40
30250;DHT22;17064;47.974;13.826;2024-03-22T14:37:08;22.00;63.90
30250;DHT22;17064;47.974;13.826;2024-03-22T14:42:08;22.00;61.60
30250;DHT22;17064;47.974;13.826;2024-03-22T14:47:09;22.50;64.00
30250;DHT22;17064;47.974;13.826;2024-03-22T14:52:10;22.70;60.80
30250;DHT22;17064;47.974;13.826;2024-03-22T14:57:10;22.70;63.40
30250;DHT22;17064;47.974;13.826;2024-03-22T15:02:11;22.00;58.90
30250;DHT22;17064;47.974;13.826;2024-03-22T15:07:11;20.40;64.30
30250;DHT22;17064;47.974;13.826;2024-03-22T15:12:12;19.20;67.30
30250;DHT22;17064;47.974;13.826;2024-03-22T15:17:13;18.30;71.00
30250;DHT22;17064;47.974;13.826;2024-03-22T15:22:16;17.80;75.60
30250;DHT22;17064;47.974;13.826;2024-03-22T15:27:18;17.80;72.40
30250;DHT22;17064;47.974;13.826;2024-03-22T15:32:19;17.70;73.50
30250;DHT22;17064;47.974;13.826;2024-03-22T15:37:20;17.60;73.30
30250;DHT22;17064;47.974;13.826;2024-03-22T15:42:21;17.60;73.90
30250;DHT22;17064;47.974;13.826;2024-03-22T15:47:22;17.40;75.40
30250;DHT22;17064;47.974;13.826;2024-03-22T15:52:23;17.20;78.20
30250;DHT22;17064;47.974;13.826;2024-03-22T15:57:24;17.00;77.60
30250;DHT22;17064;47.974;13.826;2024-03-22T16:02:24;16.80;77.30
30250;DHT22;17064;47.974;13.826;2024-03-22T16:07:25;16.70;78.00
30250;DHT22;17064;47.974;13.826;2024-03-22T16:12:25;16.50;79.10
30250;DHT22;17064;47.974;13.826;2024-03-22T16:17:26;16.40;78.60
30250;DHT22;17064;47.974;13.826;2024-03-22T16:22:27;16.20;81.00
30250;DHT22;17064;47.974;13.826;2024-03-22T16:27:28;16.10;83.90
30250;DHT22;17064;47.974;13.826;2024-03-22T16:32:28;15.90;84.40
30250;DHT22;17064;47.974;13.826;2024-03-22T16:37:29;15.70;85.80
30250;DHT22;17064;47.974;13.826;2024-03-22T16:42:29;15.60;87.70
30250;DHT22;17064;47.974;13.826;2024-03-22T16:47:30;15.50;88.70
30250;DHT22;17064;47.974;13.826;2024-03-22T16:52:30;15.30;88.70
30250;DHT22;17064;47.974;13.826;2024-03-22T16:57:32;15.20;90.00
30250;DHT22;17064;47.974;13.826;2024-03-22T17:02:32;15.00;90.00
30250;DHT22;17064;47.974;13.826;2024-03-22T17:07:33;14.80;91.70
30250;DHT22;17064;47.974;13.826;2024-03-22T17:12:34;14.60;93.40
30250;DHT22;17064;47.974;13.826;2024-03-22T17:17:35;14.30;98.70
30250;DHT22;17064;47.974;13.826;2024-03-22T17:22:35;14.10;99.90
30250;DHT22;17064;47.974;13.826;2024-03-22T17:27:36;13.90;99.90
30250;DHT22;17064;47.974;13.826;2024-03-22T17:32:37;13.60;99.90
30250;DHT22;17064;47.974;13.826;2024-03-22T17:37:37;13.40;99.90
30250;DHT22;17064;47.974;13.826;2024-03-22T17:42:39;13.20;99.90
30250;DHT22;17064;47.974;13.826;2024-03-22T17:47:40;13.00;99.90
30250;DHT22;17064;47.974;13.826;2024-03-22T17:52:40;12.80;99.90
30250;DHT22;17064;47.974;13.826;2024-03-22T17:57:41;12.60;99.90
30250;DHT22;17064;47.974;13.826;2024-03-22T18:02:42;12.40;99.90
30250;DHT22;17064;47.974;13.826;2024-03-22T18:07:42;12.20;99.90
30250;DHT22;17064;47.974;13.826;2024-03-22T18:12:43;12.10;99.90
30250;DHT22;17064;47.974;13.826;2024-03-22T18:17:43;12.00;99.90
30250;DHT22;17064;47.974;13.826;2024-03-22T18:22:45;11.80;99.90
30250;DHT22;17064;47.974;13.826;2024-03-22T18:27:46;11.80;99.90
30250;DHT22;17064;47.974;13.826;2024-03-22T18:32:47;11.70;99.90
30250;DHT22;17064;47.974;13.826;2024-03-22T18:37:47;11.60;99.90
30250;DHT22;17064;47.974;13.826;2024-03-22T18:42:48;11.50;99.90
30250;DHT22;17064;47.974;13.826;2024-03-22T18:47:49;11.40;99.90
30250;DHT22;17064;47.974;13.826;2024-03-22T18:52:49;11.20;99.90
30250;DHT22;17064;47.974;13.826;2024-03-22T18:57:50;11.10;99.90
30250;DHT22;17064;47.974;13.826;2024-03-22T19:02:51;11.00;99.90
30250;DHT22;17064;47.974;13.826;2024-03-22T19:07:52;11.00;99.90
30250;DHT22;17064;47.974;13.826;2024-03-22T19:12:52;10.90;99.90
30250;DHT22;17064;47.974;13.826;2024-03-22T19:17:53;10.90;99.90
30250;DHT22;17064;47.974;13.826;2024-03-22T19:22:54;10.90;99.90
30250;DHT22;17064;47.974;13.826;2024-03-22T19:27:55;11.00;99.90
30250;DHT22;17064;47.974;13.826;2024-03-22T19:32:57;10.90;99.90
30250;DHT22;17064;47.974;13.826;2024-03-22T19:37:58;10.80;99.90
30250;DHT22;17064;47.974;13.826;2024-03-22T19:42:59;10.70;99.90
30250;DHT22;17064;47.974;13.826;2024-03-22T19:47:59;10.60;99.90
30250;DHT22;17064;47.974;13.826;2024-03-22T19:53:00;10.50;99.90
30250;DHT22;17064;47.974;13.826;2024-03-22T19:58:01;10.50;99.90
30250;DHT22;17064;47.974;13.826;2024-03-22T20:03:01;10.40;99.90
30250;DHT22;17064;47.974;13.826;2024-03-22T20:08:02;10.30;99.90
30250;DHT22;17064;47.974;13.826;2024-03-22T20:13:03;10.30;99.90
30250;DHT22;17064;47.974;13.826;2024-03-22T20:18:03;10.20;99.90
30250;DHT22;17064;47.974;13.826;2024-03-22T20:23:04;10.10;99.90
30250;DHT22;17064;47.974;13.826;2024-03-22T20:28:06;10.10;99.90
30250;DHT22;17064;47.974;13.826;2024-03-22T20:33:07;10.10;99.90
